sensor_id;sensor_type;location;lat;lon;timestamp;P1;durP1;ratioP1;P2;durP2;ratioP2
33495;SDS011;19836;55.812;37.560;2023-02-28T00:03:12;6.18;;;4.53;;
33495;SDS011;19836;55.812;37.560;2023-02-28T00:10:40;8.10;;;4.78;;
33495;SDS011;19836;55.812;37.560;2023-02-28T00:14:14;6.53;;;4.13;;
33495;SDS011;19836;55.812;37.560;2023-02-28T00:18:13;7.40;;;4.45;;
33495;SDS011;19836;55.812;37.560;2023-02-28T00:24:13;5.80;;;3.78;;
33495;SDS011;19836;55.812;37.560;2023-02-28T00:27:07;7.57;;;4.90;;
33495;SDS011;19836;55.812;37.560;2023-02-28T00:29:34;8.55;;;5.22;;
33495;SDS011;19836;55.812;37.560;2023-02-28T00:33:06;7.68;;;5.20;;
33495;SDS011;19836;55.812;37.560;2023-02-28T00:59:51;5.43;;;3.30;;
33495;SDS011;19836;55.812;37.560;2023-02-28T01:02:57;9.95;;;5.07;;
33495;SDS011;19836;55.812;37.560;2023-02-28T01:06:36;5.93;;;3.65;;
33495;SDS011;19836;55.812;37.560;2023-02-28T01:09:23;8.25;;;5.18;;
33495;SDS011;19836;55.812;37.560;2023-02-28T01:12:51;5.20;;;2.88;;
33495;SDS011;19836;55.812;37.560;2023-02-28T01:23:10;6.32;;;4.10;;
33495;SDS011;19836;55.812;37.560;2023-02-28T01:26:12;7.10;;;3.30;;
33495;SDS011;19836;55.812;37.560;2023-02-28T01:29:23;5.88;;;3.22;;
33495;SDS011;19836;55.812;37.560;2023-02-28T01:32:44;4.38;;;2.58;;
33495;SDS011;19836;55.812;37.560;2023-02-28T01:38:41;7.30;;;3.58;;
33495;SDS011;19836;55.812;37.560;2023-02-28T01:41:59;6.70;;;3.92;;
33495;SDS011;19836;55.812;37.560;2023-02-28T01:47:41;7.13;;;3.58;;
33495;SDS011;19836;55.812;37.560;2023-02-28T01:50:19;5.78;;;2.80;;
33495;SDS011;19836;55.812;37.560;2023-02-28T01:53:29;7.78;;;5.13;;
33495;SDS011;19836;55.812;37.560;2023-02-28T01:56:09;5.55;;;3.22;;
33495;SDS011;19836;55.812;37.560;2023-02-28T01:58:49;4.35;;;2.30;;
33495;SDS011;19836;55.812;37.560;2023-02-28T02:01:51;8.75;;;5.47;;
33495;SDS011;19836;55.812;37.560;2023-02-28T02:04:36;5.88;;;4.30;;
33495;SDS011;19836;55.812;37.560;2023-02-28T02:07:16;7.07;;;4.47;;
33495;SDS011;19836;55.812;37.560;2023-02-28T02:09:44;7.75;;;3.83;;
33495;SDS011;19836;55.812;37.560;2023-02-28T02:12:21;6.10;;;4.03;;
33495;SDS011;19836;55.812;37.560;2023-02-28T02:15:18;7.30;;;5.28;;
33495;SDS011;19836;55.812;37.560;2023-02-28T02:27:28;6.05;;;3.92;;
33495;SDS011;19836;55.812;37.560;2023-02-28T02:36:07;4.30;;;3.00;;
33495;SDS011;19836;55.812;37.560;2023-02-28T02:42:43;6.28;;;2.90;;
33495;SDS011;19836;55.812;37.560;2023-02-28T02:46:06;4.60;;;3.65;;
33495;SDS011;19836;55.812;37.560;2023-02-28T02:52:18;4.70;;;3.08;;
33495;SDS011;19836;55.812;37.560;2023-02-28T02:55:25;4.78;;;3.00;;
33495;SDS011;19836;55.812;37.560;2023-02-28T02:58:08;2.75;;;1.95;;
33495;SDS011;19836;55.812;37.560;2023-02-28T03:08:45;4.45;;;2.53;;
33495;SDS011;19836;55.812;37.560;2023-02-28T03:11:34;3.58;;;2.20;;
33495;SDS011;19836;55.812;37.560;2023-02-28T03:21:23;4.60;;;2.70;;
33495;SDS011;19836;55.812;37.560;2023-02-28T03:48:12;7.15;;;3.83;;
33495;SDS011;19836;55.812;37.560;2023-02-28T03:51:14;5.20;;;3.58;;
33495;SDS011;19836;55.812;37.560;2023-02-28T03:54:20;4.45;;;3.05;;
33495;SDS011;19836;55.812;37.560;2023-02-28T03:57:37;9.25;;;5.30;;
33495;SDS011;19836;55.812;37.560;2023-02-28T04:00:25;9.23;;;5.40;;
33495;SDS011;19836;55.812;37.560;2023-02-28T04:02:58;4.32;;;2.72;;
33495;SDS011;19836;55.812;37.560;2023-02-28T04:05:31;9.18;;;5.55;;
33495;SDS011;19836;55.812;37.560;2023-02-28T04:30:00;2.85;;;2.05;;
33495;SDS011;19836;55.812;37.560;2023-02-28T04:32:31;5.10;;;2.58;;
33495;SDS011;19836;55.812;37.560;2023-02-28T04:35:25;5.80;;;3.83;;
33495;SDS011;19836;55.812;37.560;2023-02-28T04:38:18;5.18;;;3.38;;
33495;SDS011;19836;55.812;37.560;2023-02-28T04:40:52;5.72;;;2.17;;
33495;SDS011;19836;55.812;37.560;2023-02-28T04:43:21;7.13;;;4.28;;
33495;SDS011;19836;55.812;37.560;2023-02-28T04:45:55;4.03;;;2.92;;
33495;SDS011;19836;55.812;37.560;2023-02-28T04:48:50;4.95;;;2.60;;
33495;SDS011;19836;55.812;37.560;2023-02-28T04:51:54;6.05;;;2.95;;
33495;SDS011;19836;55.812;37.560;2023-02-28T04:57:18;3.65;;;2.67;;
33495;SDS011;19836;55.812;37.560;2023-02-28T05:00:18;6.90;;;3.97;;
33495;SDS011;19836;55.812;37.560;2023-02-28T05:03:14;5.07;;;2.75;;
33495;SDS011;19836;55.812;37.560;2023-02-28T05:06:19;6.18;;;3.47;;
33495;SDS011;19836;55.812;37.560;2023-02-28T05:09:30;3.47;;;1.75;;
33495;SDS011;19836;55.812;37.560;2023-02-28T05:12:25;4.55;;;2.38;;
33495;SDS011;19836;55.812;37.560;2023-02-28T05:15:21;4.72;;;2.60;;
33495;SDS011;19836;55.812;37.560;2023-02-28T05:18:57;4.30;;;2.85;;
33495;SDS011;19836;55.812;37.560;2023-02-28T05:21:28;2.22;;;1.67;;
33495;SDS011;19836;55.812;37.560;2023-02-28T05:24:18;4.82;;;3.20;;
33495;SDS011;19836;55.812;37.560;2023-02-28T05:27:08;4.75;;;3.03;;
33495;SDS011;19836;55.812;37.560;2023-02-28T05:29:39;3.17;;;1.92;;
33495;SDS011;19836;55.812;37.560;2023-02-28T05:32:18;3.78;;;1.60;;
33495;SDS011;19836;55.812;37.560;2023-02-28T05:35:40;3.42;;;2.33;;
33495;SDS011;19836;55.812;37.560;2023-02-28T05:38:14;3.08;;;1.60;;
33495;SDS011;19836;55.812;37.560;2023-02-28T05:40:48;3.15;;;2.08;;
33495;SDS011;19836;55.812;37.560;2023-02-28T05:44:07;3.95;;;1.95;;
33495;SDS011;19836;55.812;37.560;2023-02-28T05:47:00;4.85;;;3.15;;
33495;SDS011;19836;55.812;37.560;2023-02-28T05:49:28;3.40;;;2.15;;
33495;SDS011;19836;55.812;37.560;2023-02-28T05:51:58;2.45;;;1.83;;
33495;SDS011;19836;55.812;37.560;2023-02-28T05:57:03;3.45;;;2.42;;
33495;SDS011;19836;55.812;37.560;2023-02-28T05:59:33;2.40;;;1.90;;
33495;SDS011;19836;55.812;37.560;2023-02-28T06:02:10;4.80;;;2.88;;
33495;SDS011;19836;55.812;37.560;2023-02-28T06:05:05;2.63;;;1.42;;
33495;SDS011;19836;55.812;37.560;2023-02-28T06:07:42;2.40;;;1.63;;
33495;SDS011;19836;55.812;37.560;2023-02-28T06:10:27;4.65;;;2.60;;
33495;SDS011;19836;55.812;37.560;2023-02-28T06:12:59;4.95;;;2.50;;
33495;SDS011;19836;55.812;37.560;2023-02-28T06:15:45;2.38;;;1.70;;
33495;SDS011;19836;55.812;37.560;2023-02-28T06:18:36;4.55;;;3.20;;
33495;SDS011;19836;55.812;37.560;2023-02-28T06:21:30;2.90;;;2.55;;
33495;SDS011;19836;55.812;37.560;2023-02-28T06:24:28;4.22;;;2.78;;
33495;SDS011;19836;55.812;37.560;2023-02-28T06:27:00;2.63;;;2.05;;
33495;SDS011;19836;55.812;37.560;2023-02-28T06:29:31;3.28;;;2.40;;
33495;SDS011;19836;55.812;37.560;2023-02-28T06:31:58;4.93;;;2.70;;
33495;SDS011;19836;55.812;37.560;2023-02-28T06:34:24;4.75;;;3.00;;
33495;SDS011;19836;55.812;37.560;2023-02-28T06:36:50;3.88;;;2.42;;
33495;SDS011;19836;55.812;37.560;2023-02-28T06:39:16;5.45;;;4.60;;
33495;SDS011;19836;55.812;37.560;2023-02-28T06:41:43;5.55;;;3.50;;
33495;SDS011;19836;55.812;37.560;2023-02-28T06:44:11;4.68;;;2.70;;
33495;SDS011;19836;55.812;37.560;2023-02-28T06:46:40;4.72;;;2.90;;
33495;SDS011;19836;55.812;37.560;2023-02-28T06:49:07;4.85;;;3.17;;
33495;SDS011;19836;55.812;37.560;2023-02-28T06:51:34;4.35;;;2.78;;
33495;SDS011;19836;55.812;37.560;2023-02-28T06:54:07;2.85;;;1.98;;
33495;SDS011;19836;55.812;37.560;2023-02-28T06:56:37;3.03;;;1.83;;
33495;SDS011;19836;55.812;37.560;2023-02-28T06:59:03;4.10;;;2.63;;
33495;SDS011;19836;55.812;37.560;2023-02-28T07:01:29;2.90;;;1.80;;
33495;SDS011;19836;55.812;37.560;2023-02-28T07:03:57;5.90;;;2.65;;
33495;SDS011;19836;55.812;37.560;2023-02-28T07:14:36;4.05;;;1.98;;
33495;SDS011;19836;55.812;37.560;2023-02-28T07:17:02;2.38;;;1.45;;
33495;SDS011;19836;55.812;37.560;2023-02-28T07:19:28;4.55;;;2.67;;
33495;SDS011;19836;55.812;37.560;2023-02-28T07:21:54;2.83;;;2.17;;
33495;SDS011;19836;55.812;37.560;2023-02-28T07:24:20;2.97;;;2.05;;
33495;SDS011;19836;55.812;37.560;2023-02-28T07:26:46;3.50;;;2.20;;
33495;SDS011;19836;55.812;37.560;2023-02-28T07:29:12;3.85;;;2.47;;
33495;SDS011;19836;55.812;37.560;2023-02-28T07:31:38;2.75;;;1.92;;
33495;SDS011;19836;55.812;37.560;2023-02-28T07:34:07;3.63;;;1.83;;
33495;SDS011;19836;55.812;37.560;2023-02-28T07:36:32;3.40;;;2.28;;
33495;SDS011;19836;55.812;37.560;2023-02-28T07:38:59;4.53;;;2.90;;
33495;SDS011;19836;55.812;37.560;2023-02-28T07:41:25;6.07;;;2.17;;
33495;SDS011;19836;55.812;37.560;2023-02-28T07:43:59;3.45;;;1.85;;
33495;SDS011;19836;55.812;37.560;2023-02-28T07:46:25;1.92;;;1.60;;
33495;SDS011;19836;55.812;37.560;2023-02-28T07:48:52;2.65;;;1.77;;
33495;SDS011;19836;55.812;37.560;2023-02-28T07:51:19;2.53;;;1.80;;
33495;SDS011;19836;55.812;37.560;2023-02-28T07:53:54;2.90;;;1.45;;
33495;SDS011;19836;55.812;37.560;2023-02-28T07:56:25;3.42;;;2.13;;
33495;SDS011;19836;55.812;37.560;2023-02-28T07:58:52;4.75;;;2.72;;
33495;SDS011;19836;55.812;37.560;2023-02-28T08:01:18;2.30;;;1.50;;
33495;SDS011;19836;55.812;37.560;2023-02-28T08:03:46;3.97;;;2.20;;
33495;SDS011;19836;55.812;37.560;2023-02-28T08:06:20;3.50;;;2.08;;
33495;SDS011;19836;55.812;37.560;2023-02-28T08:08:49;4.10;;;2.13;;
33495;SDS011;19836;55.812;37.560;2023-02-28T08:11:18;4.53;;;2.90;;
33495;SDS011;19836;55.812;37.560;2023-02-28T08:13:44;3.92;;;2.47;;
33495;SDS011;19836;55.812;37.560;2023-02-28T08:16:11;4.07;;;1.98;;
33495;SDS011;19836;55.812;37.560;2023-02-28T08:18:42;4.65;;;2.58;;
33495;SDS011;19836;55.812;37.560;2023-02-28T08:21:09;4.43;;;2.53;;
33495;SDS011;19836;55.812;37.560;2023-02-28T08:23:36;3.10;;;1.73;;
33495;SDS011;19836;55.812;37.560;2023-02-28T08:26:04;2.92;;;2.03;;
33495;SDS011;19836;55.812;37.560;2023-02-28T08:28:30;3.92;;;2.40;;
33495;SDS011;19836;55.812;37.560;2023-02-28T08:30:57;4.32;;;2.78;;
33495;SDS011;19836;55.812;37.560;2023-02-28T08:33:25;5.20;;;2.72;;
33495;SDS011;19836;55.812;37.560;2023-02-28T08:38:44;3.95;;;2.50;;
33495;SDS011;19836;55.812;37.560;2023-02-28T08:44:05;4.15;;;2.25;;
33495;SDS011;19836;55.812;37.560;2023-02-28T08:46:32;4.10;;;2.67;;
33495;SDS011;19836;55.812;37.560;2023-02-28T08:48:58;4.88;;;3.08;;
33495;SDS011;19836;55.812;37.560;2023-02-28T08:51:25;5.82;;;3.20;;
33495;SDS011;19836;55.812;37.560;2023-02-28T08:53:52;5.75;;;3.60;;
33495;SDS011;19836;55.812;37.560;2023-02-28T08:56:49;4.10;;;2.60;;
33495;SDS011;19836;55.812;37.560;2023-02-28T08:59:15;4.20;;;2.35;;
33495;SDS011;19836;55.812;37.560;2023-02-28T09:06:27;2.72;;;1.75;;
33495;SDS011;19836;55.812;37.560;2023-02-28T09:11:55;4.20;;;2.00;;
33495;SDS011;19836;55.812;37.560;2023-02-28T09:14:22;5.38;;;2.35;;
33495;SDS011;19836;55.812;37.560;2023-02-28T09:16:48;4.13;;;2.45;;
33495;SDS011;19836;55.812;37.560;2023-02-28T09:19:15;4.65;;;2.80;;
33495;SDS011;19836;55.812;37.560;2023-02-28T09:21:41;2.60;;;1.83;;
33495;SDS011;19836;55.812;37.560;2023-02-28T09:24:07;3.40;;;1.83;;
33495;SDS011;19836;55.812;37.560;2023-02-28T09:26:33;4.70;;;2.80;;
33495;SDS011;19836;55.812;37.560;2023-02-28T09:28:59;4.43;;;1.75;;
33495;SDS011;19836;55.812;37.560;2023-02-28T09:31:29;3.85;;;2.10;;
33495;SDS011;19836;55.812;37.560;2023-02-28T09:33:56;3.67;;;2.50;;
33495;SDS011;19836;55.812;37.560;2023-02-28T09:36:24;3.30;;;2.13;;
33495;SDS011;19836;55.812;37.560;2023-02-28T09:38:55;5.55;;;1.95;;
33495;SDS011;19836;55.812;37.560;2023-02-28T09:41:22;2.63;;;1.40;;
33495;SDS011;19836;55.812;37.560;2023-02-28T09:43:57;1.17;;;1.02;;
33495;SDS011;19836;55.812;37.560;2023-02-28T09:46:30;3.00;;;2.03;;
33495;SDS011;19836;55.812;37.560;2023-02-28T09:49:16;2.90;;;1.77;;
33495;SDS011;19836;55.812;37.560;2023-02-28T09:51:54;4.43;;;2.60;;
33495;SDS011;19836;55.812;37.560;2023-02-28T09:54:21;1.85;;;1.13;;
33495;SDS011;19836;55.812;37.560;2023-02-28T09:56:58;2.88;;;1.50;;
33495;SDS011;19836;55.812;37.560;2023-02-28T10:05:16;3.20;;;2.20;;
33495;SDS011;19836;55.812;37.560;2023-02-28T10:10:27;2.45;;;1.00;;
33495;SDS011;19836;55.812;37.560;2023-02-28T10:12:59;10.35;;;3.70;;
33495;SDS011;19836;55.812;37.560;2023-02-28T10:15:29;2.55;;;1.60;;
33495;SDS011;19836;55.812;37.560;2023-02-28T10:17:58;3.35;;;2.15;;
33495;SDS011;19836;55.812;37.560;2023-02-28T10:20:30;3.55;;;1.85;;
33495;SDS011;19836;55.812;37.560;2023-02-28T10:25:50;2.60;;;1.80;;
33495;SDS011;19836;55.812;37.560;2023-02-28T10:28:20;2.95;;;1.63;;
33495;SDS011;19836;55.812;37.560;2023-02-28T10:30:47;4.82;;;2.67;;
33495;SDS011;19836;55.812;37.560;2023-02-28T10:35:47;3.58;;;2.10;;
33495;SDS011;19836;55.812;37.560;2023-02-28T10:38:19;2.92;;;2.10;;
33495;SDS011;19836;55.812;37.560;2023-02-28T10:40:47;3.65;;;2.08;;
33495;SDS011;19836;55.812;37.560;2023-02-28T10:45:39;2.67;;;1.77;;
33495;SDS011;19836;55.812;37.560;2023-02-28T10:53:23;2.45;;;1.38;;
33495;SDS011;19836;55.812;37.560;2023-02-28T11:01:33;3.15;;;2.22;;
33495;SDS011;19836;55.812;37.560;2023-02-28T11:04:00;4.05;;;2.10;;
33495;SDS011;19836;55.812;37.560;2023-02-28T11:06:30;2.25;;;1.38;;
33495;SDS011;19836;55.812;37.560;2023-02-28T11:08:59;4.60;;;3.08;;
33495;SDS011;19836;55.812;37.560;2023-02-28T11:11:29;4.35;;;1.92;;
33495;SDS011;19836;55.812;37.560;2023-02-28T11:14:06;5.10;;;1.92;;
33495;SDS011;19836;55.812;37.560;2023-02-28T11:16:49;2.83;;;1.90;;
33495;SDS011;19836;55.812;37.560;2023-02-28T11:19:24;2.97;;;1.70;;
33495;SDS011;19836;55.812;37.560;2023-02-28T11:21:59;2.75;;;1.20;;
33495;SDS011;19836;55.812;37.560;2023-02-28T11:26:57;4.78;;;2.72;;
33495;SDS011;19836;55.812;37.560;2023-02-28T11:29:24;5.13;;;2.85;;
33495;SDS011;19836;55.812;37.560;2023-02-28T11:34:41;5.38;;;2.78;;
33495;SDS011;19836;55.812;37.560;2023-02-28T11:37:13;1.42;;;1.33;;
33495;SDS011;19836;55.812;37.560;2023-02-28T11:39:42;4.28;;;2.10;;
33495;SDS011;19836;55.812;37.560;2023-02-28T11:53:19;4.40;;;1.90;;
33495;SDS011;19836;55.812;37.560;2023-02-28T11:56:07;3.78;;;1.98;;
33495;SDS011;19836;55.812;37.560;2023-02-28T11:58:52;2.30;;;1.83;;
33495;SDS011;19836;55.812;37.560;2023-02-28T12:04:26;4.85;;;2.83;;
33495;SDS011;19836;55.812;37.560;2023-02-28T12:24:07;2.38;;;1.88;;
33495;SDS011;19836;55.812;37.560;2023-02-28T12:26:54;2.90;;;2.03;;
33495;SDS011;19836;55.812;37.560;2023-02-28T12:29:33;2.60;;;2.00;;
33495;SDS011;19836;55.812;37.560;2023-02-28T12:34:56;3.72;;;2.47;;
33495;SDS011;19836;55.812;37.560;2023-02-28T12:37:38;2.70;;;2.13;;
33495;SDS011;19836;55.812;37.560;2023-02-28T12:42:51;3.97;;;2.85;;
33495;SDS011;19836;55.812;37.560;2023-02-28T12:45:23;2.80;;;2.42;;
33495;SDS011;19836;55.812;37.560;2023-02-28T12:48:00;4.07;;;2.50;;
33495;SDS011;19836;55.812;37.560;2023-02-28T12:50:31;3.47;;;2.55;;
33495;SDS011;19836;55.812;37.560;2023-02-28T12:58:28;6.40;;;3.17;;
33495;SDS011;19836;55.812;37.560;2023-02-28T13:09:17;1.50;;;1.30;;
33495;SDS011;19836;55.812;37.560;2023-02-28T13:11:48;5.57;;;2.95;;
33495;SDS011;19836;55.812;37.560;2023-02-28T13:17:02;3.20;;;2.38;;
33495;SDS011;19836;55.812;37.560;2023-02-28T13:19:29;3.05;;;2.45;;
33495;SDS011;19836;55.812;37.560;2023-02-28T13:21:58;5.35;;;3.20;;
33495;SDS011;19836;55.812;37.560;2023-02-28T13:29:32;1.73;;;1.48;;
33495;SDS011;19836;55.812;37.560;2023-02-28T13:34:38;3.47;;;2.42;;
33495;SDS011;19836;55.812;37.560;2023-02-28T13:52:53;2.67;;;1.63;;
33495;SDS011;19836;55.812;37.560;2023-02-28T13:55:52;2.90;;;2.20;;
33495;SDS011;19836;55.812;37.560;2023-02-28T14:06:56;2.72;;;1.42;;
33495;SDS011;19836;55.812;37.560;2023-02-28T14:11:55;3.05;;;2.25;;
33495;SDS011;19836;55.812;37.560;2023-02-28T14:17:00;3.13;;;1.73;;
33495;SDS011;19836;55.812;37.560;2023-02-28T14:19:29;2.25;;;1.92;;
33495;SDS011;19836;55.812;37.560;2023-02-28T14:25:22;1.80;;;1.35;;
33495;SDS011;19836;55.812;37.560;2023-02-28T14:28:04;4.35;;;2.20;;
33495;SDS011;19836;55.812;37.560;2023-02-28T14:36:27;7.18;;;2.92;;
33495;SDS011;19836;55.812;37.560;2023-02-28T14:39:15;4.50;;;2.67;;
33495;SDS011;19836;55.812;37.560;2023-02-28T14:41:45;2.65;;;2.03;;
33495;SDS011;19836;55.812;37.560;2023-02-28T14:44:42;3.25;;;2.22;;
33495;SDS011;19836;55.812;37.560;2023-02-28T14:47:23;2.25;;;1.88;;
33495;SDS011;19836;55.812;37.560;2023-02-28T14:49:54;2.35;;;1.92;;
33495;SDS011;19836;55.812;37.560;2023-02-28T14:52:30;2.17;;;1.90;;
33495;SDS011;19836;55.812;37.560;2023-02-28T14:55:03;3.00;;;1.95;;
33495;SDS011;19836;55.812;37.560;2023-02-28T14:57:42;3.70;;;2.13;;
33495;SDS011;19836;55.812;37.560;2023-02-28T15:00:27;2.58;;;2.30;;
33495;SDS011;19836;55.812;37.560;2023-02-28T15:02:55;3.97;;;2.47;;
33495;SDS011;19836;55.812;37.560;2023-02-28T15:05:32;3.00;;;2.40;;
33495;SDS011;19836;55.812;37.560;2023-02-28T15:08:01;3.50;;;1.70;;
33495;SDS011;19836;55.812;37.560;2023-02-28T15:10:35;2.28;;;1.65;;
33495;SDS011;19836;55.812;37.560;2023-02-28T15:13:02;1.85;;;1.70;;
33495;SDS011;19836;55.812;37.560;2023-02-28T15:15:52;3.00;;;1.50;;
33495;SDS011;19836;55.812;37.560;2023-02-28T15:20:53;3.25;;;2.30;;
33495;SDS011;19836;55.812;37.560;2023-02-28T15:23:20;2.80;;;1.95;;
33495;SDS011;19836;55.812;37.560;2023-02-28T15:25:47;4.05;;;2.70;;
33495;SDS011;19836;55.812;37.560;2023-02-28T15:28:17;3.80;;;2.10;;
33495;SDS011;19836;55.812;37.560;2023-02-28T15:30:59;2.50;;;1.92;;
33495;SDS011;19836;55.812;37.560;2023-02-28T15:33:32;2.05;;;1.70;;
33495;SDS011;19836;55.812;37.560;2023-02-28T15:36:06;1.92;;;1.55;;
33495;SDS011;19836;55.812;37.560;2023-02-28T15:38:43;3.53;;;2.30;;
33495;SDS011;19836;55.812;37.560;2023-02-28T15:41:24;2.47;;;1.45;;
33495;SDS011;19836;55.812;37.560;2023-02-28T15:46:54;2.92;;;1.65;;
33495;SDS011;19836;55.812;37.560;2023-02-28T15:49:39;3.10;;;1.90;;
33495;SDS011;19836;55.812;37.560;2023-02-28T15:52:13;2.25;;;2.00;;
33495;SDS011;19836;55.812;37.560;2023-02-28T15:54:43;2.00;;;1.40;;
33495;SDS011;19836;55.812;37.560;2023-02-28T15:57:13;2.90;;;1.88;;
33495;SDS011;19836;55.812;37.560;2023-02-28T15:59:52;2.97;;;2.28;;
33495;SDS011;19836;55.812;37.560;2023-02-28T16:02:22;1.92;;;1.70;;
33495;SDS011;19836;55.812;37.560;2023-02-28T16:07:32;3.03;;;2.10;;
33495;SDS011;19836;55.812;37.560;2023-02-28T16:09:59;2.35;;;1.80;;
33495;SDS011;19836;55.812;37.560;2023-02-28T16:12:30;1.88;;;1.73;;
33495;SDS011;19836;55.812;37.560;2023-02-28T16:14:59;2.58;;;1.30;;
33495;SDS011;19836;55.812;37.560;2023-02-28T16:17:29;2.15;;;1.90;;
33495;SDS011;19836;55.812;37.560;2023-02-28T16:19:59;3.45;;;1.88;;
33495;SDS011;19836;55.812;37.560;2023-02-28T16:22:25;4.15;;;1.90;;
33495;SDS011;19836;55.812;37.560;2023-02-28T16:24:51;1.90;;;1.77;;
33495;SDS011;19836;55.812;37.560;2023-02-28T16:27:24;1.42;;;1.30;;
33495;SDS011;19836;55.812;37.560;2023-02-28T16:29:54;2.65;;;2.05;;
33495;SDS011;19836;55.812;37.560;2023-02-28T16:32:20;1.48;;;1.38;;
33495;SDS011;19836;55.812;37.560;2023-02-28T16:34:46;2.05;;;1.83;;
33495;SDS011;19836;55.812;37.560;2023-02-28T16:37:13;1.95;;;1.85;;
33495;SDS011;19836;55.812;37.560;2023-02-28T16:39:41;2.03;;;1.63;;
33495;SDS011;19836;55.812;37.560;2023-02-28T16:42:15;2.17;;;1.58;;
33495;SDS011;19836;55.812;37.560;2023-02-28T16:44:48;2.30;;;1.88;;
33495;SDS011;19836;55.812;37.560;2023-02-28T16:47:14;2.13;;;1.90;;
33495;SDS011;19836;55.812;37.560;2023-02-28T16:49:40;1.80;;;1.58;;
33495;SDS011;19836;55.812;37.560;2023-02-28T16:52:09;3.55;;;2.00;;
33495;SDS011;19836;55.812;37.560;2023-02-28T16:54:35;2.70;;;2.13;;
33495;SDS011;19836;55.812;37.560;2023-02-28T16:57:01;2.50;;;2.10;;
33495;SDS011;19836;55.812;37.560;2023-02-28T16:59:27;1.95;;;0.95;;
33495;SDS011;19836;55.812;37.560;2023-02-28T17:01:54;2.35;;;1.63;;
33495;SDS011;19836;55.812;37.560;2023-02-28T17:04:23;3.45;;;1.83;;
33495;SDS011;19836;55.812;37.560;2023-02-28T17:06:51;2.85;;;2.30;;
33495;SDS011;19836;55.812;37.560;2023-02-28T17:09:18;1.40;;;1.20;;
33495;SDS011;19836;55.812;37.560;2023-02-28T17:11:45;2.63;;;2.13;;
33495;SDS011;19836;55.812;37.560;2023-02-28T17:14:12;2.65;;;1.95;;
33495;SDS011;19836;55.812;37.560;2023-02-28T17:16:38;2.58;;;2.15;;
33495;SDS011;19836;55.812;37.560;2023-02-28T17:19:11;2.00;;;1.63;;
33495;SDS011;19836;55.812;37.560;2023-02-28T17:21:40;3.85;;;2.10;;
33495;SDS011;19836;55.812;37.560;2023-02-28T17:24:07;3.28;;;1.98;;
33495;SDS011;19836;55.812;37.560;2023-02-28T17:26:34;2.47;;;2.05;;
33495;SDS011;19836;55.812;37.560;2023-02-28T17:29:00;2.35;;;2.15;;
33495;SDS011;19836;55.812;37.560;2023-02-28T17:31:27;2.25;;;2.05;;
33495;SDS011;19836;55.812;37.560;2023-02-28T17:33:54;1.70;;;1.55;;
33495;SDS011;19836;55.812;37.560;2023-02-28T17:36:22;3.45;;;1.60;;
33495;SDS011;19836;55.812;37.560;2023-02-28T17:38:53;2.35;;;1.85;;
33495;SDS011;19836;55.812;37.560;2023-02-28T17:41:24;1.90;;;1.42;;
33495;SDS011;19836;55.812;37.560;2023-02-28T17:43:52;1.63;;;1.48;;
33495;SDS011;19836;55.812;37.560;2023-02-28T17:46:19;1.95;;;0.93;;
33495;SDS011;19836;55.812;37.560;2023-02-28T17:48:47;1.92;;;0.80;;
33495;SDS011;19836;55.812;37.560;2023-02-28T17:51:19;1.27;;;0.68;;
33495;SDS011;19836;55.812;37.560;2023-02-28T17:53:47;1.90;;;0.60;;
33495;SDS011;19836;55.812;37.560;2023-02-28T17:56:22;1.55;;;0.50;;
33495;SDS011;19836;55.812;37.560;2023-02-28T17:58:52;0.60;;;0.47;;
33495;SDS011;19836;55.812;37.560;2023-02-28T18:01:20;1.88;;;0.70;;
33495;SDS011;19836;55.812;37.560;2023-02-28T18:03:48;2.53;;;0.60;;
33495;SDS011;19836;55.812;37.560;2023-02-28T18:06:15;1.75;;;0.80;;
33495;SDS011;19836;55.812;37.560;2023-02-28T18:08:45;2.50;;;1.08;;
33495;SDS011;19836;55.812;37.560;2023-02-28T18:11:11;1.27;;;0.68;;
33495;SDS011;19836;55.812;37.560;2023-02-28T18:13:49;1.73;;;0.65;;
33495;SDS011;19836;55.812;37.560;2023-02-28T18:16:17;2.50;;;0.60;;
33495;SDS011;19836;55.812;37.560;2023-02-28T18:18:44;3.17;;;0.60;;
33495;SDS011;19836;55.812;37.560;2023-02-28T18:21:11;0.93;;;0.50;;
33495;SDS011;19836;55.812;37.560;2023-02-28T18:23:39;2.05;;;0.40;;
33495;SDS011;19836;55.812;37.560;2023-02-28T18:26:17;1.77;;;0.50;;
33495;SDS011;19836;55.812;37.560;2023-02-28T18:28:46;3.28;;;0.88;;
33495;SDS011;19836;55.812;37.560;2023-02-28T18:31:14;1.70;;;0.63;;
33495;SDS011;19836;55.812;37.560;2023-02-28T18:33:43;1.67;;;0.80;;
33495;SDS011;19836;55.812;37.560;2023-02-28T18:36:12;2.92;;;0.60;;
33495;SDS011;19836;55.812;37.560;2023-02-28T18:38:39;1.83;;;0.60;;
33495;SDS011;19836;55.812;37.560;2023-02-28T18:41:05;0.57;;;0.50;;
33495;SDS011;19836;55.812;37.560;2023-02-28T18:43:34;1.42;;;0.77;;
33495;SDS011;19836;55.812;37.560;2023-02-28T18:46:03;2.83;;;0.70;;
33495;SDS011;19836;55.812;37.560;2023-02-28T18:48:31;1.83;;;0.60;;
33495;SDS011;19836;55.812;37.560;2023-02-28T18:50:58;3.05;;;0.55;;
33495;SDS011;19836;55.812;37.560;2023-02-28T18:53:30;1.90;;;0.70;;
33495;SDS011;19836;55.812;37.560;2023-02-28T18:55:59;0.63;;;0.40;;
33495;SDS011;19836;55.812;37.560;2023-02-28T18:58:25;1.35;;;0.50;;
33495;SDS011;19836;55.812;37.560;2023-02-28T19:00:52;2.85;;;0.70;;
33495;SDS011;19836;55.812;37.560;2023-02-28T19:03:18;2.65;;;0.90;;
33495;SDS011;19836;55.812;37.560;2023-02-28T19:05:45;0.63;;;0.50;;
33495;SDS011;19836;55.812;37.560;2023-02-28T19:08:11;2.22;;;0.75;;
33495;SDS011;19836;55.812;37.560;2023-02-28T19:10:38;0.80;;;0.50;;
33495;SDS011;19836;55.812;37.560;2023-02-28T19:13:07;1.30;;;0.52;;
33495;SDS011;19836;55.812;37.560;2023-02-28T19:15:33;1.23;;;0.70;;
33495;SDS011;19836;55.812;37.560;2023-02-28T19:17:59;2.25;;;0.63;;
33495;SDS011;19836;55.812;37.560;2023-02-28T19:20:25;1.20;;;0.70;;
33495;SDS011;19836;55.812;37.560;2023-02-28T19:22:51;0.93;;;0.70;;
33495;SDS011;19836;55.812;37.560;2023-02-28T19:25:17;2.15;;;0.90;;
33495;SDS011;19836;55.812;37.560;2023-02-28T19:27:43;1.67;;;0.93;;
33495;SDS011;19836;55.812;37.560;2023-02-28T19:30:09;1.52;;;0.68;;
33495;SDS011;19836;55.812;37.560;2023-02-28T19:32:35;3.13;;;0.70;;
33495;SDS011;19836;55.812;37.560;2023-02-28T19:35:01;1.08;;;0.65;;
33495;SDS011;19836;55.812;37.560;2023-02-28T19:37:28;1.83;;;0.63;;
33495;SDS011;19836;55.812;37.560;2023-02-28T19:39:54;2.17;;;0.80;;
33495;SDS011;19836;55.812;37.560;2023-02-28T19:42:21;2.40;;;0.95;;
33495;SDS011;19836;55.812;37.560;2023-02-28T19:44:47;2.20;;;0.98;;
33495;SDS011;19836;55.812;37.560;2023-02-28T19:47:14;1.95;;;0.70;;
33495;SDS011;19836;55.812;37.560;2023-02-28T19:49:40;3.33;;;0.85;;
33495;SDS011;19836;55.812;37.560;2023-02-28T19:52:06;1.65;;;0.60;;
33495;SDS011;19836;55.812;37.560;2023-02-28T19:54:32;1.27;;;0.70;;
33495;SDS011;19836;55.812;37.560;2023-02-28T19:56:59;1.08;;;0.73;;
33495;SDS011;19836;55.812;37.560;2023-02-28T19:59:27;4.68;;;1.25;;
33495;SDS011;19836;55.812;37.560;2023-02-28T20:01:53;1.17;;;0.88;;
33495;SDS011;19836;55.812;37.560;2023-02-28T20:04:21;1.17;;;0.70;;
33495;SDS011;19836;55.812;37.560;2023-02-28T20:06:48;2.38;;;0.70;;
33495;SDS011;19836;55.812;37.560;2023-02-28T20:09:14;1.65;;;0.68;;
33495;SDS011;19836;55.812;37.560;2023-02-28T20:11:41;1.20;;;0.60;;
33495;SDS011;19836;55.812;37.560;2023-02-28T20:14:07;2.35;;;0.80;;
33495;SDS011;19836;55.812;37.560;2023-02-28T20:16:33;1.60;;;0.70;;
33495;SDS011;19836;55.812;37.560;2023-02-28T20:18:59;1.98;;;0.90;;